Terminal Aerodrome Forecast
Issued by NWS Central Illinois

Home | Current Version | Previous Version | Text Only | Print | Product List | Glossary On
Versions: 1 2 3 4 5 6 7 8 9 10 11 12
544
FTUS43 KILX 242335
TAFPIA
TAF
KPIA 242335Z 2500/2524 19008KT P6SM SCT050 BKN250
     FM251500 18010G18KT P6SM SCT050 BKN250=

USA.gov is the U.S. government's official web portal to all federal, state and local government web resources and services.